sensor_id;sensor_type;location;lat;lon;timestamp;temperature;humidity
4856;DHT22;2442;48.676;7.986;2022-12-10T00:01:21;1.00;99.90
4856;DHT22;2442;48.676;7.986;2022-12-10T00:03:48;1.00;99.90
4856;DHT22;2442;48.676;7.986;2022-12-10T00:06:17;1.00;99.90
4856;DHT22;2442;48.676;7.986;2022-12-10T00:08:44;1.00;99.90
4856;DHT22;2442;48.676;7.986;2022-12-10T00:11:13;1.00;99.90
4856;DHT22;2442;48.676;7.986;2022-12-10T00:13:42;1.00;99.90
4856;DHT22;2442;48.676;7.986;2022-12-10T00:16:11;1.00;99.90
4856;DHT22;2442;48.676;7.986;2022-12-10T00:18:38;1.00;99.90
4856;DHT22;2442;48.676;7.986;2022-12-10T00:21:07;1.00;99.90
4856;DHT22;2442;48.676;7.986;2022-12-10T00:23:35;1.10;99.90
4856;DHT22;2442;48.676;7.986;2022-12-10T00:26:03;1.10;99.90
4856;DHT22;2442;48.676;7.986;2022-12-10T00:28:30;1.10;99.90
4856;DHT22;2442;48.676;7.986;2022-12-10T00:31:03;1.20;99.90
4856;DHT22;2442;48.676;7.986;2022-12-10T00:33:30;1.20;99.90
4856;DHT22;2442;48.676;7.986;2022-12-10T00:36:02;1.30;99.90
4856;DHT22;2442;48.676;7.986;2022-12-10T00:38:29;1.30;99.90
4856;DHT22;2442;48.676;7.986;2022-12-10T00:40:56;1.30;99.90
4856;DHT22;2442;48.676;7.986;2022-12-10T00:43:22;1.30;99.90
4856;DHT22;2442;48.676;7.986;2022-12-10T00:45:49;1.40;99.90
4856;DHT22;2442;48.676;7.986;2022-12-10T00:48:17;1.30;99.90
4856;DHT22;2442;48.676;7.986;2022-12-10T00:50:48;1.40;99.90
4856;DHT22;2442;48.676;7.986;2022-12-10T00:53:20;1.30;99.90
4856;DHT22;2442;48.676;7.986;2022-12-10T00:55:47;1.40;99.90
4856;DHT22;2442;48.676;7.986;2022-12-10T00:58:14;1.40;99.90
4856;DHT22;2442;48.676;7.986;2022-12-10T01:00:41;1.40;99.90
4856;DHT22;2442;48.676;7.986;2022-12-10T01:03:07;1.40;99.90
4856;DHT22;2442;48.676;7.986;2022-12-10T01:05:36;1.40;99.90
4856;DHT22;2442;48.676;7.986;2022-12-10T01:08:02;1.40;99.90
4856;DHT22;2442;48.676;7.986;2022-12-10T01:10:29;1.40;99.90
4856;DHT22;2442;48.676;7.986;2022-12-10T01:12:56;1.40;99.90
4856;DHT22;2442;48.676;7.986;2022-12-10T01:15:23;1.40;99.90
4856;DHT22;2442;48.676;7.986;2022-12-10T01:17:50;1.40;99.90
4856;DHT22;2442;48.676;7.986;2022-12-10T01:20:17;1.40;99.90
4856;DHT22;2442;48.676;7.986;2022-12-10T01:22:45;1.40;99.90
4856;DHT22;2442;48.676;7.986;2022-12-10T01:25:12;1.40;99.90
4856;DHT22;2442;48.676;7.986;2022-12-10T01:27:39;1.40;99.90
4856;DHT22;2442;48.676;7.986;2022-12-10T01:30:07;1.40;99.90
4856;DHT22;2442;48.676;7.986;2022-12-10T01:32:34;1.40;99.90
4856;DHT22;2442;48.676;7.986;2022-12-10T01:35:01;1.30;99.90
4856;DHT22;2442;48.676;7.986;2022-12-10T01:37:28;1.30;99.90
4856;DHT22;2442;48.676;7.986;2022-12-10T01:39:56;1.30;99.90
4856;DHT22;2442;48.676;7.986;2022-12-10T01:42:23;1.30;99.90
4856;DHT22;2442;48.676;7.986;2022-12-10T01:45:09;1.20;99.90
4856;DHT22;2442;48.676;7.986;2022-12-10T01:47:36;1.20;99.90
4856;DHT22;2442;48.676;7.986;2022-12-10T01:50:05;1.10;99.90
4856;DHT22;2442;48.676;7.986;2022-12-10T01:52:32;1.10;99.90
4856;DHT22;2442;48.676;7.986;2022-12-10T01:55:01;1.10;99.90
4856;DHT22;2442;48.676;7.986;2022-12-10T01:57:29;1.10;99.90
4856;DHT22;2442;48.676;7.986;2022-12-10T01:59:58;1.10;99.90
4856;DHT22;2442;48.676;7.986;2022-12-10T02:02:34;1.20;99.90
4856;DHT22;2442;48.676;7.986;2022-12-10T02:05:15;1.10;99.90
4856;DHT22;2442;48.676;7.986;2022-12-10T02:07:52;1.10;99.90
4856;DHT22;2442;48.676;7.986;2022-12-10T02:10:34;1.10;99.90
4856;DHT22;2442;48.676;7.986;2022-12-10T02:13:08;1.10;99.90
4856;DHT22;2442;48.676;7.986;2022-12-10T02:15:41;1.10;99.90
4856;DHT22;2442;48.676;7.986;2022-12-10T02:18:12;1.10;99.90
4856;DHT22;2442;48.676;7.986;2022-12-10T02:20:43;1.10;99.90
4856;DHT22;2442;48.676;7.986;2022-12-10T02:23:14;1.00;99.90
4856;DHT22;2442;48.676;7.986;2022-12-10T02:25:48;1.00;99.90
4856;DHT22;2442;48.676;7.986;2022-12-10T02:28:21;1.00;99.90
4856;DHT22;2442;48.676;7.986;2022-12-10T02:30:52;1.00;99.90
4856;DHT22;2442;48.676;7.986;2022-12-10T02:33:20;1.00;99.90
4856;DHT22;2442;48.676;7.986;2022-12-10T02:35:50;1.00;99.90
4856;DHT22;2442;48.676;7.986;2022-12-10T02:38:22;1.00;99.90
4856;DHT22;2442;48.676;7.986;2022-12-10T02:40:53;1.00;99.90
4856;DHT22;2442;48.676;7.986;2022-12-10T02:43:23;1.00;99.90
4856;DHT22;2442;48.676;7.986;2022-12-10T02:45:52;1.00;99.90
4856;DHT22;2442;48.676;7.986;2022-12-10T02:48:19;1.00;99.90
4856;DHT22;2442;48.676;7.986;2022-12-10T02:50:46;0.90;99.90
4856;DHT22;2442;48.676;7.986;2022-12-10T02:53:13;1.00;99.90
4856;DHT22;2442;48.676;7.986;2022-12-10T02:55:53;1.10;99.90
4856;DHT22;2442;48.676;7.986;2022-12-10T02:58:27;1.20;99.90
4856;DHT22;2442;48.676;7.986;2022-12-10T03:00:58;1.50;99.90
4856;DHT22;2442;48.676;7.986;2022-12-10T03:03:34;1.30;99.90
4856;DHT22;2442;48.676;7.986;2022-12-10T03:06:10;1.20;99.90
4856;DHT22;2442;48.676;7.986;2022-12-10T03:08:42;1.20;99.90
4856;DHT22;2442;48.676;7.986;2022-12-10T03:11:12;1.10;99.90
4856;DHT22;2442;48.676;7.986;2022-12-10T03:13:44;1.00;99.90
4856;DHT22;2442;48.676;7.986;2022-12-10T03:16:16;1.00;99.90
4856;DHT22;2442;48.676;7.986;2022-12-10T03:18:45;1.00;99.90
4856;DHT22;2442;48.676;7.986;2022-12-10T03:21:16;1.00;99.90
4856;DHT22;2442;48.676;7.986;2022-12-10T03:23:46;0.90;99.90
4856;DHT22;2442;48.676;7.986;2022-12-10T03:26:14;0.90;99.90
4856;DHT22;2442;48.676;7.986;2022-12-10T03:28:45;1.00;99.90
4856;DHT22;2442;48.676;7.986;2022-12-10T03:31:14;1.00;99.90
4856;DHT22;2442;48.676;7.986;2022-12-10T03:33:42;1.00;99.90
4856;DHT22;2442;48.676;7.986;2022-12-10T03:36:10;0.90;99.90
4856;DHT22;2442;48.676;7.986;2022-12-10T03:38:37;1.00;99.90
4856;DHT22;2442;48.676;7.986;2022-12-10T03:41:04;0.90;99.90
4856;DHT22;2442;48.676;7.986;2022-12-10T03:43:32;1.00;99.90
4856;DHT22;2442;48.676;7.986;2022-12-10T03:45:59;1.00;99.90
4856;DHT22;2442;48.676;7.986;2022-12-10T03:48:27;0.90;99.90
4856;DHT22;2442;48.676;7.986;2022-12-10T03:50:54;1.00;99.90
4856;DHT22;2442;48.676;7.986;2022-12-10T03:53:20;0.90;99.90
4856;DHT22;2442;48.676;7.986;2022-12-10T03:55:47;1.00;99.90
4856;DHT22;2442;48.676;7.986;2022-12-10T03:58:14;1.00;99.90
4856;DHT22;2442;48.676;7.986;2022-12-10T04:00:41;1.00;99.90
4856;DHT22;2442;48.676;7.986;2022-12-10T04:03:08;1.00;99.90
4856;DHT22;2442;48.676;7.986;2022-12-10T04:05:36;1.10;99.90
4856;DHT22;2442;48.676;7.986;2022-12-10T04:08:03;1.00;99.90
4856;DHT22;2442;48.676;7.986;2022-12-10T04:10:35;1.00;99.90
4856;DHT22;2442;48.676;7.986;2022-12-10T04:13:02;1.00;99.90
4856;DHT22;2442;48.676;7.986;2022-12-10T04:15:46;1.00;99.90
4856;DHT22;2442;48.676;7.986;2022-12-10T04:18:30;1.00;99.90
4856;DHT22;2442;48.676;7.986;2022-12-10T04:20:59;1.00;99.90
4856;DHT22;2442;48.676;7.986;2022-12-10T04:23:43;1.00;99.90
4856;DHT22;2442;48.676;7.986;2022-12-10T04:26:27;1.00;99.90
4856;DHT22;2442;48.676;7.986;2022-12-10T04:29:12;1.10;99.90
4856;DHT22;2442;48.676;7.986;2022-12-10T04:31:38;1.10;99.90
4856;DHT22;2442;48.676;7.986;2022-12-10T04:34:05;1.10;99.90
4856;DHT22;2442;48.676;7.986;2022-12-10T04:36:33;1.00;99.90
4856;DHT22;2442;48.676;7.986;2022-12-10T04:39:00;1.10;99.90
4856;DHT22;2442;48.676;7.986;2022-12-10T04:41:27;1.10;99.90
4856;DHT22;2442;48.676;7.986;2022-12-10T04:43:54;1.10;99.90
4856;DHT22;2442;48.676;7.986;2022-12-10T04:46:21;1.10;99.90
4856;DHT22;2442;48.676;7.986;2022-12-10T04:48:48;1.10;99.90
4856;DHT22;2442;48.676;7.986;2022-12-10T04:51:15;1.10;99.90
4856;DHT22;2442;48.676;7.986;2022-12-10T04:53:43;1.10;99.90
4856;DHT22;2442;48.676;7.986;2022-12-10T04:56:10;1.10;99.90
4856;DHT22;2442;48.676;7.986;2022-12-10T04:58:36;1.10;99.90
4856;DHT22;2442;48.676;7.986;2022-12-10T05:01:04;1.10;99.90
4856;DHT22;2442;48.676;7.986;2022-12-10T05:03:32;1.10;99.90
4856;DHT22;2442;48.676;7.986;2022-12-10T05:06:00;1.10;99.90
4856;DHT22;2442;48.676;7.986;2022-12-10T05:08:27;1.10;99.90
4856;DHT22;2442;48.676;7.986;2022-12-10T05:10:56;1.10;99.90
4856;DHT22;2442;48.676;7.986;2022-12-10T05:13:26;1.10;99.90
4856;DHT22;2442;48.676;7.986;2022-12-10T05:15:53;1.10;99.90
4856;DHT22;2442;48.676;7.986;2022-12-10T05:18:20;1.30;99.90
4856;DHT22;2442;48.676;7.986;2022-12-10T05:20:47;1.10;99.90
4856;DHT22;2442;48.676;7.986;2022-12-10T05:23:14;1.10;99.90
4856;DHT22;2442;48.676;7.986;2022-12-10T05:26:00;1.00;99.90
4856;DHT22;2442;48.676;7.986;2022-12-10T05:28:28;1.00;99.90
4856;DHT22;2442;48.676;7.986;2022-12-10T05:30:56;1.00;99.90
4856;DHT22;2442;48.676;7.986;2022-12-10T05:33:23;1.10;99.90
4856;DHT22;2442;48.676;7.986;2022-12-10T05:35:55;1.00;99.90
4856;DHT22;2442;48.676;7.986;2022-12-10T05:38:22;1.00;99.90
4856;DHT22;2442;48.676;7.986;2022-12-10T05:40:49;1.00;99.90
4856;DHT22;2442;48.676;7.986;2022-12-10T05:43:17;1.00;99.90
4856;DHT22;2442;48.676;7.986;2022-12-10T05:45:44;1.00;99.90
4856;DHT22;2442;48.676;7.986;2022-12-10T05:48:13;1.00;99.90
4856;DHT22;2442;48.676;7.986;2022-12-10T05:50:41;1.00;99.90
4856;DHT22;2442;48.676;7.986;2022-12-10T05:53:09;1.00;99.90
4856;DHT22;2442;48.676;7.986;2022-12-10T05:55:39;1.00;99.90
4856;DHT22;2442;48.676;7.986;2022-12-10T05:58:06;1.00;99.90
4856;DHT22;2442;48.676;7.986;2022-12-10T06:00:34;1.00;99.90
4856;DHT22;2442;48.676;7.986;2022-12-10T06:03:01;1.00;99.90
4856;DHT22;2442;48.676;7.986;2022-12-10T06:05:28;1.00;99.90
4856;DHT22;2442;48.676;7.986;2022-12-10T06:07:55;1.00;99.90
4856;DHT22;2442;48.676;7.986;2022-12-10T06:10:22;1.00;99.90
4856;DHT22;2442;48.676;7.986;2022-12-10T06:12:48;1.00;99.90
4856;DHT22;2442;48.676;7.986;2022-12-10T06:15:15;1.00;99.90
4856;DHT22;2442;48.676;7.986;2022-12-10T06:17:43;1.00;99.90
4856;DHT22;2442;48.676;7.986;2022-12-10T06:20:11;1.00;99.90
4856;DHT22;2442;48.676;7.986;2022-12-10T06:22:38;1.00;99.90
4856;DHT22;2442;48.676;7.986;2022-12-10T06:25:05;1.00;99.90
4856;DHT22;2442;48.676;7.986;2022-12-10T06:27:32;0.90;99.90
4856;DHT22;2442;48.676;7.986;2022-12-10T06:29:59;1.00;99.90
4856;DHT22;2442;48.676;7.986;2022-12-10T06:32:26;0.90;99.90
4856;DHT22;2442;48.676;7.986;2022-12-10T06:34:54;0.90;99.90
4856;DHT22;2442;48.676;7.986;2022-12-10T06:37:21;0.90;99.90
4856;DHT22;2442;48.676;7.986;2022-12-10T06:39:50;0.90;99.90
4856;DHT22;2442;48.676;7.986;2022-12-10T06:42:18;0.90;99.90
4856;DHT22;2442;48.676;7.986;2022-12-10T06:44:45;0.90;99.90
4856;DHT22;2442;48.676;7.986;2022-12-10T06:47:12;0.90;99.90
4856;DHT22;2442;48.676;7.986;2022-12-10T06:49:39;0.90;99.90
4856;DHT22;2442;48.676;7.986;2022-12-10T06:52:07;0.90;99.90
4856;DHT22;2442;48.676;7.986;2022-12-10T06:54:34;0.90;99.90
4856;DHT22;2442;48.676;7.986;2022-12-10T06:57:01;0.90;99.90
4856;DHT22;2442;48.676;7.986;2022-12-10T06:59:27;0.80;99.90
4856;DHT22;2442;48.676;7.986;2022-12-10T07:01:54;0.80;99.90
4856;DHT22;2442;48.676;7.986;2022-12-10T07:04:21;0.80;99.90
4856;DHT22;2442;48.676;7.986;2022-12-10T07:06:48;0.80;99.90
4856;DHT22;2442;48.676;7.986;2022-12-10T07:09:16;0.80;99.90
4856;DHT22;2442;48.676;7.986;2022-12-10T07:11:43;0.80;99.90
4856;DHT22;2442;48.676;7.986;2022-12-10T07:14:13;0.80;99.90
4856;DHT22;2442;48.676;7.986;2022-12-10T07:16:40;0.80;99.90
4856;DHT22;2442;48.676;7.986;2022-12-10T07:19:09;0.80;99.90
4856;DHT22;2442;48.676;7.986;2022-12-10T07:21:37;0.70;99.90
4856;DHT22;2442;48.676;7.986;2022-12-10T07:24:06;0.70;99.90
4856;DHT22;2442;48.676;7.986;2022-12-10T07:26:37;0.70;99.90
4856;DHT22;2442;48.676;7.986;2022-12-10T07:29:06;0.70;99.90
4856;DHT22;2442;48.676;7.986;2022-12-10T07:31:34;0.70;99.90
4856;DHT22;2442;48.676;7.986;2022-12-10T07:34:01;0.70;99.90
4856;DHT22;2442;48.676;7.986;2022-12-10T07:36:28;0.70;99.90
4856;DHT22;2442;48.676;7.986;2022-12-10T07:38:55;0.70;99.90
4856;DHT22;2442;48.676;7.986;2022-12-10T07:41:23;0.80;99.90
4856;DHT22;2442;48.676;7.986;2022-12-10T07:43:52;0.70;99.90
4856;DHT22;2442;48.676;7.986;2022-12-10T07:46:20;0.70;99.90
4856;DHT22;2442;48.676;7.986;2022-12-10T07:48:48;0.80;99.90
4856;DHT22;2442;48.676;7.986;2022-12-10T07:51:18;0.80;99.90
4856;DHT22;2442;48.676;7.986;2022-12-10T07:53:46;0.80;99.90
4856;DHT22;2442;48.676;7.986;2022-12-10T07:56:13;0.80;99.90
4856;DHT22;2442;48.676;7.986;2022-12-10T07:58:41;0.80;99.90
4856;DHT22;2442;48.676;7.986;2022-12-10T08:01:12;0.80;99.90
4856;DHT22;2442;48.676;7.986;2022-12-10T08:03:40;0.80;99.90
4856;DHT22;2442;48.676;7.986;2022-12-10T08:06:09;0.80;99.90
4856;DHT22;2442;48.676;7.986;2022-12-10T08:08:37;0.80;99.90
4856;DHT22;2442;48.676;7.986;2022-12-10T08:11:05;0.80;99.90
4856;DHT22;2442;48.676;7.986;2022-12-10T08:13:33;0.80;99.90
4856;DHT22;2442;48.676;7.986;2022-12-10T08:16:01;0.80;99.90
4856;DHT22;2442;48.676;7.986;2022-12-10T08:18:30;0.80;99.90
4856;DHT22;2442;48.676;7.986;2022-12-10T08:20:57;0.80;99.90
4856;DHT22;2442;48.676;7.986;2022-12-10T08:23:24;0.80;99.90
4856;DHT22;2442;48.676;7.986;2022-12-10T08:25:51;0.80;99.90
4856;DHT22;2442;48.676;7.986;2022-12-10T08:28:17;0.80;99.90
4856;DHT22;2442;48.676;7.986;2022-12-10T08:30:45;0.80;99.90
4856;DHT22;2442;48.676;7.986;2022-12-10T08:33:12;0.80;99.90
4856;DHT22;2442;48.676;7.986;2022-12-10T08:35:41;0.70;99.90
4856;DHT22;2442;48.676;7.986;2022-12-10T08:38:07;0.80;99.90
4856;DHT22;2442;48.676;7.986;2022-12-10T08:40:38;0.80;99.90
4856;DHT22;2442;48.676;7.986;2022-12-10T08:43:05;0.80;99.90
4856;DHT22;2442;48.676;7.986;2022-12-10T08:45:32;0.80;99.90
4856;DHT22;2442;48.676;7.986;2022-12-10T08:47:59;0.80;99.90
4856;DHT22;2442;48.676;7.986;2022-12-10T08:50:27;0.80;99.90
4856;DHT22;2442;48.676;7.986;2022-12-10T08:52:55;0.90;99.90
4856;DHT22;2442;48.676;7.986;2022-12-10T08:55:22;0.90;99.90
4856;DHT22;2442;48.676;7.986;2022-12-10T08:57:49;0.90;99.90
4856;DHT22;2442;48.676;7.986;2022-12-10T09:00:16;0.90;99.90
4856;DHT22;2442;48.676;7.986;2022-12-10T09:02:45;0.90;99.90
4856;DHT22;2442;48.676;7.986;2022-12-10T09:05:12;0.90;99.90
4856;DHT22;2442;48.676;7.986;2022-12-10T09:07:39;0.90;99.90
4856;DHT22;2442;48.676;7.986;2022-12-10T09:10:09;1.10;99.90
4856;DHT22;2442;48.676;7.986;2022-12-10T09:12:36;0.90;99.90
4856;DHT22;2442;48.676;7.986;2022-12-10T09:15:04;0.90;99.90
4856;DHT22;2442;48.676;7.986;2022-12-10T09:17:31;0.90;99.90
4856;DHT22;2442;48.676;7.986;2022-12-10T09:19:58;0.90;99.90
4856;DHT22;2442;48.676;7.986;2022-12-10T09:22:25;0.90;99.90
4856;DHT22;2442;48.676;7.986;2022-12-10T09:24:52;0.90;99.90
4856;DHT22;2442;48.676;7.986;2022-12-10T09:27:20;0.90;99.90
4856;DHT22;2442;48.676;7.986;2022-12-10T09:29:47;0.90;99.90
4856;DHT22;2442;48.676;7.986;2022-12-10T09:32:14;0.90;99.90
4856;DHT22;2442;48.676;7.986;2022-12-10T09:34:41;1.00;99.90
4856;DHT22;2442;48.676;7.986;2022-12-10T09:37:07;0.90;99.90
4856;DHT22;2442;48.676;7.986;2022-12-10T09:39:34;1.00;99.90
4856;DHT22;2442;48.676;7.986;2022-12-10T09:42:12;1.00;99.90
4856;DHT22;2442;48.676;7.986;2022-12-10T09:44:51;1.10;99.90
4856;DHT22;2442;48.676;7.986;2022-12-10T09:47:29;1.10;99.90
4856;DHT22;2442;48.676;7.986;2022-12-10T09:50:02;1.10;99.90
4856;DHT22;2442;48.676;7.986;2022-12-10T09:52:34;1.10;99.90
4856;DHT22;2442;48.676;7.986;2022-12-10T09:55:05;1.10;99.90
4856;DHT22;2442;48.676;7.986;2022-12-10T09:57:40;1.10;99.90
4856;DHT22;2442;48.676;7.986;2022-12-10T10:00:21;1.10;99.90
4856;DHT22;2442;48.676;7.986;2022-12-10T10:02:49;1.10;99.90
4856;DHT22;2442;48.676;7.986;2022-12-10T10:05:20;1.10;99.90
4856;DHT22;2442;48.676;7.986;2022-12-10T10:07:51;1.10;99.90
4856;DHT22;2442;48.676;7.986;2022-12-10T10:10:24;1.10;99.90
4856;DHT22;2442;48.676;7.986;2022-12-10T10:12:53;1.20;99.90
4856;DHT22;2442;48.676;7.986;2022-12-10T10:15:26;1.10;99.90
4856;DHT22;2442;48.676;7.986;2022-12-10T10:17:57;1.10;99.90
4856;DHT22;2442;48.676;7.986;2022-12-10T10:20:25;1.10;99.90
4856;DHT22;2442;48.676;7.986;2022-12-10T10:22:53;1.10;99.90
4856;DHT22;2442;48.676;7.986;2022-12-10T10:25:22;1.10;99.90
4856;DHT22;2442;48.676;7.986;2022-12-10T10:27:49;1.20;99.90
4856;DHT22;2442;48.676;7.986;2022-12-10T10:30:20;1.20;99.90
4856;DHT22;2442;48.676;7.986;2022-12-10T10:32:50;1.20;99.90
4856;DHT22;2442;48.676;7.986;2022-12-10T10:35:27;1.20;99.90
4856;DHT22;2442;48.676;7.986;2022-12-10T10:37:59;1.30;99.90
4856;DHT22;2442;48.676;7.986;2022-12-10T10:40:30;1.20;99.90
4856;DHT22;2442;48.676;7.986;2022-12-10T10:42:58;1.30;99.90
4856;DHT22;2442;48.676;7.986;2022-12-10T10:45:36;1.30;99.90
4856;DHT22;2442;48.676;7.986;2022-12-10T10:48:10;1.30;99.90
4856;DHT22;2442;48.676;7.986;2022-12-10T10:50:39;1.30;99.90
4856;DHT22;2442;48.676;7.986;2022-12-10T10:53:28;1.30;99.90
4856;DHT22;2442;48.676;7.986;2022-12-10T10:55:59;1.30;99.90
4856;DHT22;2442;48.676;7.986;2022-12-10T10:58:28;1.40;99.90
4856;DHT22;2442;48.676;7.986;2022-12-10T11:01:00;1.30;99.90
4856;DHT22;2442;48.676;7.986;2022-12-10T11:03:30;1.30;99.90
4856;DHT22;2442;48.676;7.986;2022-12-10T11:05:59;1.20;99.90
4856;DHT22;2442;48.676;7.986;2022-12-10T11:08:29;1.20;99.90
4856;DHT22;2442;48.676;7.986;2022-12-10T11:11:02;1.20;99.90
4856;DHT22;2442;48.676;7.986;2022-12-10T11:13:32;1.20;99.90
4856;DHT22;2442;48.676;7.986;2022-12-10T11:16:09;1.30;99.90
4856;DHT22;2442;48.676;7.986;2022-12-10T11:18:40;1.30;99.90
4856;DHT22;2442;48.676;7.986;2022-12-10T11:21:16;1.30;99.90
4856;DHT22;2442;48.676;7.986;2022-12-10T11:23:46;1.30;99.90
4856;DHT22;2442;48.676;7.986;2022-12-10T11:26:21;1.30;99.90
4856;DHT22;2442;48.676;7.986;2022-12-10T11:29:01;1.30;99.90
4856;DHT22;2442;48.676;7.986;2022-12-10T11:31:39;1.30;99.90
4856;DHT22;2442;48.676;7.986;2022-12-10T11:34:16;1.30;99.90
4856;DHT22;2442;48.676;7.986;2022-12-10T11:36:51;1.30;99.90
4856;DHT22;2442;48.676;7.986;2022-12-10T11:39:30;1.40;99.90
4856;DHT22;2442;48.676;7.986;2022-12-10T11:42:04;1.40;99.90
4856;DHT22;2442;48.676;7.986;2022-12-10T11:44:41;1.40;99.90
4856;DHT22;2442;48.676;7.986;2022-12-10T11:47:35;1.40;99.90
4856;DHT22;2442;48.676;7.986;2022-12-10T11:50:15;1.30;99.90
4856;DHT22;2442;48.676;7.986;2022-12-10T11:52:55;1.40;99.90
4856;DHT22;2442;48.676;7.986;2022-12-10T11:55:33;1.40;99.90
4856;DHT22;2442;48.676;7.986;2022-12-10T11:58:16;1.40;99.90
4856;DHT22;2442;48.676;7.986;2022-12-10T12:00:51;1.40;99.90
4856;DHT22;2442;48.676;7.986;2022-12-10T12:03:32;1.40;99.90
4856;DHT22;2442;48.676;7.986;2022-12-10T12:06:20;1.50;99.90
4856;DHT22;2442;48.676;7.986;2022-12-10T12:08:54;1.50;99.90
4856;DHT22;2442;48.676;7.986;2022-12-10T12:11:33;1.50;99.90
4856;DHT22;2442;48.676;7.986;2022-12-10T12:14:10;1.50;99.90
4856;DHT22;2442;48.676;7.986;2022-12-10T12:16:42;1.60;99.90
4856;DHT22;2442;48.676;7.986;2022-12-10T12:19:14;1.50;99.90
4856;DHT22;2442;48.676;7.986;2022-12-10T12:21:47;1.50;99.90
4856;DHT22;2442;48.676;7.986;2022-12-10T12:24:20;1.40;99.90
4856;DHT22;2442;48.676;7.986;2022-12-10T12:26:50;1.40;99.90
4856;DHT22;2442;48.676;7.986;2022-12-10T12:29:23;1.40;99.90
4856;DHT22;2442;48.676;7.986;2022-12-10T12:31:56;1.40;99.90
4856;DHT22;2442;48.676;7.986;2022-12-10T12:34:27;1.40;99.90
4856;DHT22;2442;48.676;7.986;2022-12-10T12:36:57;1.40;99.90
4856;DHT22;2442;48.676;7.986;2022-12-10T12:39:33;1.40;99.90
4856;DHT22;2442;48.676;7.986;2022-12-10T12:42:07;1.40;99.90
4856;DHT22;2442;48.676;7.986;2022-12-10T12:44:52;1.40;99.90
4856;DHT22;2442;48.676;7.986;2022-12-10T12:47:32;1.30;99.90
4856;DHT22;2442;48.676;7.986;2022-12-10T12:50:02;1.30;99.90
4856;DHT22;2442;48.676;7.986;2022-12-10T12:52:36;1.30;99.90
4856;DHT22;2442;48.676;7.986;2022-12-10T12:55:09;1.30;99.90
4856;DHT22;2442;48.676;7.986;2022-12-10T12:57:41;1.30;99.90
4856;DHT22;2442;48.676;7.986;2022-12-10T13:00:12;1.30;99.90
4856;DHT22;2442;48.676;7.986;2022-12-10T13:02:53;1.30;99.90
4856;DHT22;2442;48.676;7.986;2022-12-10T13:05:26;1.30;99.90
4856;DHT22;2442;48.676;7.986;2022-12-10T13:08:29;1.40;99.90
4856;DHT22;2442;48.676;7.986;2022-12-10T13:11:00;1.30;99.90
4856;DHT22;2442;48.676;7.986;2022-12-10T13:14:01;1.30;99.90
4856;DHT22;2442;48.676;7.986;2022-12-10T13:16:46;1.40;99.90
4856;DHT22;2442;48.676;7.986;2022-12-10T13:19:25;1.30;99.90
4856;DHT22;2442;48.676;7.986;2022-12-10T13:22:01;1.40;99.90
4856;DHT22;2442;48.676;7.986;2022-12-10T13:25:04;1.40;99.90
4856;DHT22;2442;48.676;7.986;2022-12-10T13:27:34;1.40;99.90
4856;DHT22;2442;48.676;7.986;2022-12-10T13:30:05;1.50;99.90
4856;DHT22;2442;48.676;7.986;2022-12-10T13:32:53;1.50;99.90
4856;DHT22;2442;48.676;7.986;2022-12-10T13:35:29;1.50;99.90
4856;DHT22;2442;48.676;7.986;2022-12-10T13:38:03;1.50;99.90
4856;DHT22;2442;48.676;7.986;2022-12-10T13:40:41;1.50;99.90
4856;DHT22;2442;48.676;7.986;2022-12-10T13:43:29;1.40;99.90
4856;DHT22;2442;48.676;7.986;2022-12-10T13:46:30;1.50;99.90
4856;DHT22;2442;48.676;7.986;2022-12-10T13:48:58;1.50;99.90
4856;DHT22;2442;48.676;7.986;2022-12-10T13:51:35;1.50;99.90
4856;DHT22;2442;48.676;7.986;2022-12-10T13:54:18;1.50;99.90
4856;DHT22;2442;48.676;7.986;2022-12-10T13:56:52;1.50;99.90
4856;DHT22;2442;48.676;7.986;2022-12-10T13:59:29;1.50;99.90
4856;DHT22;2442;48.676;7.986;2022-12-10T14:02:14;1.60;99.90
4856;DHT22;2442;48.676;7.986;2022-12-10T14:05:00;1.50;99.90
4856;DHT22;2442;48.676;7.986;2022-12-10T14:07:30;1.50;99.90
4856;DHT22;2442;48.676;7.986;2022-12-10T14:09:58;1.50;99.90
4856;DHT22;2442;48.676;7.986;2022-12-10T14:12:30;1.50;99.90
4856;DHT22;2442;48.676;7.986;2022-12-10T14:15:00;1.50;99.90
4856;DHT22;2442;48.676;7.986;2022-12-10T14:17:32;1.50;99.90
4856;DHT22;2442;48.676;7.986;2022-12-10T14:20:00;1.60;99.90
4856;DHT22;2442;48.676;7.986;2022-12-10T14:22:31;1.60;99.90
4856;DHT22;2442;48.676;7.986;2022-12-10T14:25:02;1.60;99.90
4856;DHT22;2442;48.676;7.986;2022-12-10T14:27:33;1.70;99.90
4856;DHT22;2442;48.676;7.986;2022-12-10T14:30:05;1.60;99.90
4856;DHT22;2442;48.676;7.986;2022-12-10T14:32:34;1.60;99.90
4856;DHT22;2442;48.676;7.986;2022-12-10T14:35:04;1.50;99.90
4856;DHT22;2442;48.676;7.986;2022-12-10T14:37:34;1.50;99.90
4856;DHT22;2442;48.676;7.986;2022-12-10T14:40:05;1.50;99.90
4856;DHT22;2442;48.676;7.986;2022-12-10T14:42:34;1.50;99.90
4856;DHT22;2442;48.676;7.986;2022-12-10T14:45:06;1.50;99.90
4856;DHT22;2442;48.676;7.986;2022-12-10T14:47:36;1.50;99.90
4856;DHT22;2442;48.676;7.986;2022-12-10T14:50:06;1.50;99.90
4856;DHT22;2442;48.676;7.986;2022-12-10T14:52:40;1.50;99.90
4856;DHT22;2442;48.676;7.986;2022-12-10T14:55:12;1.50;99.90
4856;DHT22;2442;48.676;7.986;2022-12-10T14:57:44;1.50;99.90
4856;DHT22;2442;48.676;7.986;2022-12-10T15:00:14;1.60;99.90
4856;DHT22;2442;48.676;7.986;2022-12-10T15:02:45;1.50;99.90
4856;DHT22;2442;48.676;7.986;2022-12-10T15:05:16;1.50;99.90
4856;DHT22;2442;48.676;7.986;2022-12-10T15:07:48;1.50;99.90
4856;DHT22;2442;48.676;7.986;2022-12-10T15:10:18;1.40;99.90
4856;DHT22;2442;48.676;7.986;2022-12-10T15:12:49;1.50;99.90
4856;DHT22;2442;48.676;7.986;2022-12-10T15:15:21;1.40;99.90
4856;DHT22;2442;48.676;7.986;2022-12-10T15:17:57;1.50;99.90
4856;DHT22;2442;48.676;7.986;2022-12-10T15:20:26;1.50;99.90
4856;DHT22;2442;48.676;7.986;2022-12-10T15:22:53;1.50;99.90
4856;DHT22;2442;48.676;7.986;2022-12-10T15:25:24;1.60;99.90
4856;DHT22;2442;48.676;7.986;2022-12-10T15:27:58;1.60;99.90
4856;DHT22;2442;48.676;7.986;2022-12-10T15:30:37;1.60;99.90
4856;DHT22;2442;48.676;7.986;2022-12-10T15:33:27;1.60;99.90
4856;DHT22;2442;48.676;7.986;2022-12-10T15:35:57;2.00;99.90
4856;DHT22;2442;48.676;7.986;2022-12-10T15:38:25;1.70;99.90
4856;DHT22;2442;48.676;7.986;2022-12-10T15:40:57;1.60;99.90
4856;DHT22;2442;48.676;7.986;2022-12-10T15:43:28;1.70;99.90
4856;DHT22;2442;48.676;7.986;2022-12-10T15:45:55;1.70;99.90
4856;DHT22;2442;48.676;7.986;2022-12-10T15:48:22;1.70;99.90
4856;DHT22;2442;48.676;7.986;2022-12-10T15:50:51;1.70;99.90
4856;DHT22;2442;48.676;7.986;2022-12-10T15:53:24;1.50;99.90
4856;DHT22;2442;48.676;7.986;2022-12-10T15:55:52;1.40;99.90
4856;DHT22;2442;48.676;7.986;2022-12-10T15:58:20;1.40;99.90
4856;DHT22;2442;48.676;7.986;2022-12-10T16:00:48;1.40;99.90
4856;DHT22;2442;48.676;7.986;2022-12-10T16:03:16;1.30;99.90
4856;DHT22;2442;48.676;7.986;2022-12-10T16:05:44;1.30;99.90
4856;DHT22;2442;48.676;7.986;2022-12-10T16:08:17;1.20;99.90
4856;DHT22;2442;48.676;7.986;2022-12-10T16:10:45;1.20;99.90
4856;DHT22;2442;48.676;7.986;2022-12-10T16:13:16;1.20;99.90
4856;DHT22;2442;48.676;7.986;2022-12-10T16:15:45;1.20;99.90
4856;DHT22;2442;48.676;7.986;2022-12-10T16:18:14;1.20;99.90
4856;DHT22;2442;48.676;7.986;2022-12-10T16:20:41;1.20;99.90
4856;DHT22;2442;48.676;7.986;2022-12-10T16:23:08;1.20;99.90
4856;DHT22;2442;48.676;7.986;2022-12-10T16:25:37;1.20;99.90
4856;DHT22;2442;48.676;7.986;2022-12-10T16:28:10;1.20;99.90
4856;DHT22;2442;48.676;7.986;2022-12-10T16:30:41;1.20;99.90
4856;DHT22;2442;48.676;7.986;2022-12-10T16:33:08;1.20;99.90
4856;DHT22;2442;48.676;7.986;2022-12-10T16:35:37;1.10;99.90
4856;DHT22;2442;48.676;7.986;2022-12-10T16:38:03;1.30;99.90
4856;DHT22;2442;48.676;7.986;2022-12-10T16:40:30;1.40;99.90